createdAt,value
2019-05-25T00:01:31.613Z,52326.44
2019-05-25T00:04:00.245Z,52381.20
2019-05-25T00:06:28.941Z,52353.82
2019-05-25T00:08:57.622Z,52335.57
2019-05-25T00:11:26.419Z,52392.36
2019-05-25T00:13:54.834Z,52446.11
2019-05-25T00:16:23.287Z,52389.32
2019-05-25T00:18:51.677Z,52423.80
2019-05-25T00:21:20.075Z,52487.69
2019-05-25T00:23:48.458Z,52438.00
2019-05-25T00:26:16.858Z,52448.14
2019-05-25T00:28:45.514Z,52422.79
2019-05-25T00:31:13.960Z,52438.00
2019-05-25T00:33:42.685Z,52438.00
2019-05-25T00:36:11.068Z,52489.72
2019-05-25T00:38:39.439Z,52494.79
2019-05-25T00:41:07.837Z,52491.75
2019-05-25T00:43:36.242Z,52451.18
2019-05-25T00:46:04.698Z,52471.46
2019-05-25T00:48:33.176Z,52490.73
2019-05-25T00:51:01.515Z,52525.21
2019-05-25T00:53:30.162Z,52516.09
2019-05-25T00:55:58.855Z,52489.72
2019-05-25T00:58:27.234Z,52497.83
2019-05-25T01:00:55.704Z,52487.69
2019-05-25T01:03:24.408Z,52500.87
2019-05-25T01:05:52.800Z,52553.61
2019-05-25T01:08:21.192Z,52592.15
2019-05-25T01:10:49.592Z,52627.65
2019-05-25T01:13:18.268Z,52597.22
2019-05-25T01:15:46.659Z,52646.92
2019-05-25T01:18:15.048Z,52650.97
2019-05-25T01:20:43.996Z,52629.68
2019-05-25T01:23:12.398Z,52616.49
2019-05-25T01:25:41.076Z,52621.56
2019-05-25T01:28:09.467Z,52655.03
2019-05-25T01:30:37.837Z,52676.33
2019-05-25T01:33:06.557Z,52710.81
2019-05-25T01:35:34.954Z,52704.73
2019-05-25T01:38:04.025Z,52711.82
2019-05-25T01:40:32.425Z,52748.34
2019-05-25T01:43:00.803Z,52773.69
2019-05-25T01:45:29.482Z,52792.96
2019-05-25T01:47:57.917Z,52803.11
2019-05-25T01:50:26.306Z,52823.39
2019-05-25T01:52:54.938Z,52848.75
2019-05-25T01:55:23.339Z,52840.63
2019-05-25T01:57:52.016Z,52878.16
2019-05-25T02:00:22.116Z,52890.33
2019-05-25T02:02:50.530Z,52880.19
2019-05-25T02:05:19.088Z,52902.50
2019-05-25T02:07:47.481Z,52898.45
2019-05-25T02:10:16.200Z,52934.96
2019-05-25T02:12:44.585Z,52949.16
2019-05-25T02:15:13.911Z,52960.32
2019-05-25T02:17:42.491Z,52972.49
2019-05-25T02:20:11.543Z,52983.64
2019-05-25T02:22:39.936Z,52994.80
2019-05-25T02:25:17.662Z,52994.80
2019-05-25T02:27:40.741Z,52969.45
2019-05-25T02:30:11.679Z,53005.96
2019-05-25T02:32:40.067Z,52973.50
2019-05-25T02:35:08.907Z,53031.32
2019-05-25T02:37:37.328Z,53085.07
2019-05-25T02:40:07.629Z,53129.70
2019-05-25T02:42:39.393Z,53120.57
2019-05-25T02:45:08.242Z,53097.25
2019-05-25T02:47:36.633Z,53119.56
2019-05-25T02:50:07.128Z,53136.80
2019-05-25T02:52:35.507Z,53140.86
2019-05-25T02:55:04.338Z,53118.55
2019-05-25T02:57:32.751Z,53115.50
2019-05-25T03:00:01.447Z,53113.47
2019-05-25T03:02:29.834Z,53113.47
2019-05-25T03:04:58.323Z,53065.80
2019-05-25T03:07:27.098Z,53071.89
2019-05-25T03:09:56.550Z,53102.32
2019-05-25T03:12:25.206Z,53071.89
2019-05-25T03:14:53.607Z,53067.83
2019-05-25T03:17:22.011Z,53067.83
2019-05-25T03:19:50.453Z,53157.09
2019-05-25T03:22:18.951Z,53256.50
2019-05-25T03:24:47.340Z,53256.50
2019-05-25T03:27:15.756Z,53341.70
2019-05-25T03:29:44.147Z,53457.34
2019-05-25T03:32:12.992Z,53634.87
2019-05-25T03:34:43.206Z,53634.87
2019-05-25T03:37:11.937Z,53726.17
2019-05-25T03:39:40.413Z,53817.47
2019-05-25T03:42:08.785Z,53885.45
2019-05-25T03:44:37.196Z,53991.97
2019-05-25T03:47:05.657Z,54047.77
2019-05-25T03:49:34.062Z,54102.55
2019-05-25T03:52:02.712Z,54122.85
2019-05-25T03:54:31.098Z,54203.00
2019-05-25T03:56:59.499Z,54259.82
2019-05-25T03:59:27.912Z,54274.02
2019-05-25T04:01:56.552Z,54336.93
2019-05-25T04:04:24.944Z,54359.25
2019-05-25T04:06:53.350Z,54380.56
2019-05-25T04:09:21.739Z,54388.68
2019-05-25T04:11:50.125Z,54388.68
2019-05-25T04:14:18.534Z,54413.03
2019-05-25T04:16:46.929Z,54490.14
2019-05-25T04:19:15.643Z,54490.14
2019-05-25T04:21:44.049Z,54493.18
2019-05-25T04:24:15.617Z,54526.67
2019-05-25T04:26:43.999Z,54551.02
2019-05-25T04:29:12.758Z,54604.80
2019-05-25T04:31:41.162Z,54612.92
2019-05-25T04:34:09.554Z,54635.24
2019-05-25T04:36:38.222Z,54635.24
2019-05-25T04:39:08.254Z,54650.46
2019-05-25T04:41:36.646Z,54665.68
2019-05-25T04:44:05.619Z,54665.68
2019-05-25T04:46:34.308Z,54638.29
2019-05-25T04:49:02.950Z,54638.29
2019-05-25T04:51:31.694Z,54652.49
2019-05-25T04:54:00.099Z,54652.49
2019-05-25T04:56:38.733Z,54740.77
2019-05-25T04:58:58.982Z,54754.98
2019-05-25T05:01:27.383Z,54754.98
2019-05-25T05:03:55.766Z,54598.71
2019-05-25T05:06:24.545Z,54598.71
2019-05-25T05:08:53.326Z,54412.01
2019-05-25T05:11:21.718Z,54395.78
2019-05-25T05:13:50.177Z,54562.18
2019-05-25T05:16:18.587Z,54614.95
2019-05-25T05:18:46.973Z,54591.61
2019-05-25T05:21:15.384Z,54503.33
2019-05-25T05:23:43.822Z,54547.98
2019-05-25T05:26:12.198Z,54510.43
2019-05-25T05:28:40.595Z,54552.04
2019-05-25T05:31:22.639Z,54517.54
2019-05-25T05:33:39.981Z,54473.91
2019-05-25T05:36:09.340Z,54530.73
2019-05-25T05:38:38.692Z,54496.23
2019-05-25T05:41:09.039Z,54548.99
2019-05-25T05:43:39.580Z,54490.14
2019-05-25T05:46:09.582Z,54483.04
2019-05-25T05:48:40.516Z,54465.79
2019-05-25T05:51:11.498Z,54442.45
2019-05-25T05:53:41.098Z,54434.34
2019-05-25T05:56:09.845Z,54422.16
2019-05-25T05:58:38.308Z,54388.68
2019-05-25T06:01:06.781Z,54333.89
2019-05-25T06:03:35.163Z,54302.43
2019-05-25T06:06:03.582Z,54236.48
2019-05-25T06:08:31.967Z,54228.37
2019-05-25T06:11:00.730Z,54228.37
2019-05-25T06:13:29.148Z,54166.48
2019-05-25T06:15:57.543Z,54267.93
2019-05-25T06:18:25.940Z,54255.76
2019-05-25T06:20:54.332Z,54218.22
2019-05-25T06:23:22.730Z,54097.48
2019-05-25T06:25:51.433Z,54125.89
2019-05-25T06:28:22.415Z,54064.00
2019-05-25T06:30:49.965Z,54082.27
2019-05-25T06:33:18.358Z,54050.81
2019-05-25T06:35:46.768Z,54014.29
2019-05-25T06:38:15.187Z,54064.00
2019-05-25T06:40:43.574Z,54036.61
2019-05-25T06:43:11.954Z,53913.85
2019-05-25T06:45:40.363Z,53911.82
2019-05-25T06:48:08.777Z,53847.91
2019-05-25T06:50:37.157Z,53791.10
2019-05-25T06:53:05.569Z,53753.56
2019-05-25T06:55:33.964Z,53725.16
2019-05-25T06:58:02.653Z,53631.82
2019-05-25T07:00:31.288Z,53719.07
2019-05-25T07:02:59.681Z,53653.13
2019-05-25T07:05:28.063Z,53791.10
2019-05-25T07:07:56.479Z,53803.27
2019-05-25T07:10:24.888Z,53688.63
2019-05-25T07:12:53.570Z,53747.47
2019-05-25T07:15:22.361Z,53829.65
2019-05-25T07:17:50.926Z,53778.92
2019-05-25T07:20:19.491Z,53782.98
2019-05-25T07:22:47.896Z,53616.61
2019-05-25T07:25:20.001Z,53766.75
2019-05-25T07:27:58.759Z,53734.29
2019-05-25T07:30:20.339Z,53694.72
2019-05-25T07:32:48.759Z,53732.25
2019-05-25T07:35:17.732Z,53745.45
2019-05-25T07:37:46.462Z,53774.86
2019-05-25T07:40:15.140Z,53608.49
2019-05-25T07:42:48.244Z,53656.17
2019-05-25T07:45:17.323Z,53662.26
2019-05-25T07:47:45.826Z,53509.08
2019-05-25T07:50:20.168Z,53537.48
2019-05-25T07:52:48.516Z,53342.71
2019-05-25T07:55:16.954Z,53440.10
2019-05-25T07:57:45.381Z,53416.77
2019-05-25T08:00:14.168Z,53559.80
2019-05-25T08:02:42.943Z,53390.39
2019-05-25T08:05:11.570Z,53120.57
2019-05-25T08:07:39.964Z,52838.60
2019-05-25T08:10:08.938Z,52921.77
2019-05-25T08:12:37.415Z,53168.25
2019-05-25T08:15:07.045Z,53331.56
2019-05-25T08:17:35.885Z,52987.70
2019-05-25T08:20:07.175Z,53299.10
2019-05-25T08:22:35.708Z,53092.18
2019-05-25T08:25:06.796Z,52965.39
2019-05-25T08:27:35.187Z,52920.76
2019-05-25T08:30:05.544Z,52909.60
2019-05-25T08:32:33.931Z,52948.14
2019-05-25T08:35:02.343Z,53040.45
2019-05-25T08:37:30.746Z,53198.68
2019-05-25T08:39:59.148Z,52969.45
2019-05-25T08:42:31.864Z,52851.79
2019-05-25T08:45:00.589Z,53110.43
2019-05-25T08:47:29.278Z,53132.75
2019-05-25T08:49:57.677Z,52727.04
2019-05-25T08:52:26.293Z,52917.71
2019-05-25T08:54:56.614Z,53338.66
2019-05-25T08:57:24.915Z,53060.73
2019-05-25T08:59:53.551Z,52848.75
2019-05-25T09:02:21.962Z,52552.60
2019-05-25T09:04:50.365Z,52614.46
2019-05-25T09:07:18.758Z,52783.84
2019-05-25T09:09:47.418Z,53205.78
2019-05-25T09:12:16.080Z,53209.84
2019-05-25T09:14:44.471Z,52996.83
2019-05-25T09:17:12.877Z,52851.79
2019-05-25T09:19:41.588Z,52944.09
2019-05-25T09:22:09.990Z,52807.16
2019-05-25T09:24:38.373Z,52988.71
2019-05-25T09:27:06.774Z,52624.60
2019-05-25T09:29:35.263Z,52542.46
2019-05-25T09:32:06.884Z,52339.63
2019-05-25T09:34:33.784Z,52171.29
2019-05-25T09:37:02.174Z,52325.43
2019-05-25T09:39:36.574Z,52378.16
2019-05-25T09:42:05.880Z,52144.92
2019-05-25T09:47:19.360Z,51663.27
2019-05-25T09:49:47.734Z,51616.62
2019-05-25T09:52:16.212Z,51881.27
2019-05-25T09:54:44.658Z,51962.39
2019-05-25T09:57:13.624Z,52187.51
2019-05-25T09:59:44.135Z,52010.05
2019-05-25T10:02:12.592Z,51656.17
2019-05-25T10:04:41.311Z,51523.34
2019-05-25T10:07:09.783Z,51454.40
2019-05-25T10:09:40.155Z,51361.12
2019-05-25T10:12:09.589Z,51412.83
2019-05-25T10:14:38.012Z,51373.29
2019-05-25T10:17:06.711Z,51276.97
2019-05-25T10:19:35.221Z,51362.14
2019-05-25T10:22:04.535Z,51544.64
2019-05-25T10:24:33.243Z,51376.33
2019-05-25T10:27:02.520Z,51208.03
2019-05-25T10:29:37.108Z,51246.56
2019-05-25T10:32:02.368Z,50974.86
2019-05-25T10:34:34.412Z,50553.15
2019-05-25T10:37:02.966Z,50947.48
2019-05-25T10:39:31.648Z,50443.68
2019-05-25T10:42:00.174Z,51144.16
2019-05-25T10:44:28.590Z,50866.39
2019-05-25T10:46:56.990Z,50487.27
2019-05-25T10:49:25.400Z,50312.92
2019-05-25T10:51:53.788Z,50302.79
2019-05-25T10:54:22.190Z,50559.23
2019-05-25T10:56:50.639Z,50229.81
2019-05-25T10:59:19.065Z,49640.96
2019-05-25T11:01:47.510Z,49673.39
2019-05-25T11:04:15.878Z,48789.78
2019-05-25T11:06:44.282Z,49211.29
2019-05-25T11:09:12.675Z,48908.32
2019-05-25T11:11:41.103Z,48968.11
2019-05-25T11:14:09.502Z,48444.29
2019-05-25T11:16:38.664Z,48963.04
2019-05-25T11:19:07.369Z,49049.16
2019-05-25T11:21:35.834Z,48414.91
2019-05-25T11:24:04.250Z,48052.23
2019-05-25T11:26:32.780Z,47776.70
2019-05-25T11:29:01.209Z,48661.10
2019-05-25T11:31:29.783Z,49938.92
2019-05-25T11:33:58.191Z,50464.96
2019-05-25T11:36:26.598Z,50275.42
2019-05-25T11:38:54.997Z,49920.68
2019-05-25T11:41:23.633Z,49891.29
2019-05-25T11:43:52.030Z,49823.38
2019-05-25T11:46:20.927Z,49341.00
2019-05-25T11:48:49.380Z,49560.90
2019-05-25T11:51:17.712Z,50647.42
2019-05-25T11:53:46.143Z,50618.03
2019-05-25T11:56:14.853Z,50334.21
2019-05-25T11:58:47.368Z,49955.14
2019-05-25T12:01:13.374Z,49586.24
2019-05-25T12:03:41.766Z,49158.60
2019-05-25T12:06:10.440Z,50115.27
2019-05-25T12:08:38.843Z,50276.43
2019-05-25T12:11:07.234Z,49888.25
2019-05-25T12:13:35.669Z,49490.98
2019-05-25T12:16:04.481Z,48809.03
2019-05-25T12:18:32.910Z,49317.69
2019-05-25T12:21:01.289Z,49907.50
2019-05-25T12:23:29.685Z,49739.27
2019-05-25T12:25:58.128Z,49378.49
2019-05-25T12:28:26.534Z,50232.85
2019-05-25T12:30:55.329Z,49758.52
2019-05-25T12:33:23.730Z,48778.63
2019-05-25T12:35:52.193Z,48472.65
2019-05-25T12:38:20.575Z,49530.50
2019-05-25T12:40:53.475Z,50655.54
2019-05-25T12:43:19.094Z,50032.16
2019-05-25T12:45:47.562Z,50252.11
2019-05-25T12:48:15.955Z,50821.78
2019-05-25T12:50:44.354Z,50769.07
2019-05-25T12:53:12.948Z,50846.11
2019-05-25T12:55:41.411Z,51123.88
2019-05-25T12:58:09.985Z,51153.29
2019-05-25T13:00:38.445Z,50854.22
2019-05-25T13:03:10.349Z,50132.50
2019-05-25T13:05:37.006Z,49920.68
2019-05-25T13:08:05.424Z,49473.75
2019-05-25T13:10:33.790Z,49249.80
2019-05-25T13:13:02.430Z,49526.45
2019-05-25T13:15:30.888Z,50080.82
2019-05-25T13:17:59.299Z,50833.95
2019-05-25T13:20:27.681Z,51307.39
2019-05-25T13:22:56.088Z,51197.89
2019-05-25T13:25:24.490Z,50594.71
2019-05-25T13:27:52.871Z,50978.91
2019-05-25T13:30:21.420Z,50697.09
2019-05-25T13:32:49.829Z,50491.32
2019-05-25T13:35:18.478Z,51143.14
2019-05-25T13:37:47.163Z,50964.72
2019-05-25T13:40:16.502Z,50647.42
2019-05-25T13:42:44.885Z,49896.36
2019-05-25T13:45:13.865Z,49974.39
2019-05-25T13:47:42.263Z,50513.62
2019-05-25T13:50:11.515Z,50682.90
2019-05-25T13:52:39.902Z,49701.77
2019-05-25T13:55:09.379Z,49374.44
2019-05-25T13:57:37.915Z,49259.93
2019-05-25T14:00:08.815Z,49357.21
2019-05-25T14:02:37.236Z,49108.95
2019-05-25T14:05:09.085Z,49178.87
2019-05-25T14:07:37.632Z,49677.45
2019-05-25T14:10:07.588Z,49768.66
2019-05-25T14:12:36.046Z,49863.92
2019-05-25T14:15:07.526Z,49810.21
2019-05-25T14:17:36.345Z,49536.58
2019-05-25T14:20:05.993Z,49682.52
2019-05-25T14:22:34.468Z,49489.96
2019-05-25T14:25:05.424Z,49534.55
2019-05-25T14:27:34.363Z,49672.38
2019-05-25T14:30:02.745Z,49588.27
2019-05-25T14:32:31.148Z,49950.07
2019-05-25T14:34:59.554Z,49823.38
2019-05-25T14:37:28.211Z,50028.11
2019-05-25T14:40:04.300Z,49984.53
2019-05-25T14:42:31.934Z,49732.17
2019-05-25T14:45:00.369Z,50471.05
2019-05-25T14:47:28.839Z,50133.52
2019-05-25T14:49:57.231Z,50077.77
2019-05-25T14:52:30.294Z,49664.27
2019-05-25T14:54:58.686Z,50155.82
2019-05-25T14:57:27.164Z,50096.02
2019-05-25T14:59:55.777Z,50313.94
2019-05-25T15:02:24.180Z,50396.04
2019-05-25T15:04:52.650Z,50158.86
2019-05-25T15:07:21.043Z,50760.96
2019-05-25T15:09:49.463Z,50861.32
2019-05-25T15:12:17.874Z,50436.58
2019-05-25T15:14:46.272Z,50766.03
2019-05-25T15:17:14.653Z,50551.12
2019-05-25T15:19:43.140Z,50514.63
2019-05-25T15:22:11.728Z,50569.37
2019-05-25T15:24:40.278Z,51385.46
2019-05-25T15:27:08.702Z,51354.03
2019-05-25T15:29:38.682Z,51594.32
2019-05-25T15:32:19.461Z,51100.57
2019-05-25T15:34:41.573Z,51222.22
2019-05-25T15:37:10.044Z,51496.98
2019-05-25T15:39:38.454Z,51359.09
2019-05-25T15:42:06.852Z,51389.51
2019-05-25T15:44:35.247Z,51373.29
2019-05-25T15:47:04.944Z,51477.72
2019-05-25T15:49:34.016Z,51240.47
2019-05-25T15:52:02.445Z,51392.55
2019-05-25T15:54:30.849Z,51521.32
2019-05-25T15:56:59.271Z,51471.64
2019-05-25T15:59:27.672Z,51365.18
2019-05-25T16:01:56.056Z,51400.66
2019-05-25T16:04:24.462Z,51246.56
2019-05-25T16:06:53.136Z,51276.97
2019-05-25T16:09:21.557Z,51111.72
2019-05-25T16:11:49.947Z,50978.91
2019-05-25T16:14:18.363Z,51128.95
2019-05-25T16:16:46.757Z,50889.70
2019-05-25T16:19:15.217Z,50819.75
2019-05-25T16:21:46.112Z,50928.22
2019-05-25T16:24:20.424Z,51224.25
2019-05-25T16:26:48.924Z,51141.12
2019-05-25T16:29:17.657Z,51670.36
2019-05-25T16:31:46.024Z,51758.58
2019-05-25T16:34:14.495Z,51568.97
2019-05-25T16:36:42.904Z,51494.96
2019-05-25T16:39:11.295Z,51267.85
2019-05-25T16:41:39.731Z,51331.72
2019-05-25T16:44:09.898Z,51267.85
2019-05-25T16:46:38.570Z,51066.10
2019-05-25T16:49:09.761Z,51287.11
2019-05-25T16:51:38.199Z,51426.01
2019-05-25T16:54:06.652Z,51618.65
2019-05-25T16:56:35.091Z,51502.05
2019-05-25T16:59:06.319Z,51272.92
2019-05-25T17:01:47.694Z,51609.53
2019-05-25T17:04:05.584Z,51270.89
2019-05-25T17:06:36.154Z,51165.45
2019-05-25T17:09:10.168Z,50987.02
2019-05-25T17:11:39.041Z,50934.31
2019-05-25T17:14:09.538Z,50728.52
2019-05-25T17:16:40.502Z,50698.11
2019-05-25T17:19:09.223Z,50991.08
2019-05-25T17:21:37.628Z,51168.49
2019-05-25T17:24:06.019Z,51119.83
2019-05-25T17:26:34.655Z,51340.85
2019-05-25T17:29:03.331Z,51255.68
2019-05-25T17:31:33.597Z,51516.25
2019-05-25T17:34:01.958Z,51415.87
2019-05-25T17:36:30.364Z,51266.84
2019-05-25T17:38:58.759Z,51182.69
2019-05-25T17:41:27.151Z,51324.62
2019-05-25T17:43:55.579Z,51600.40
2019-05-25T17:46:24.001Z,51569.98
2019-05-25T17:48:53.927Z,51627.78
2019-05-25T17:51:22.328Z,51616.62
2019-05-25T17:53:50.736Z,51569.98
2019-05-25T17:56:19.436Z,51564.91
2019-05-25T17:58:47.845Z,51466.57
2019-05-25T18:01:16.249Z,51614.60
2019-05-25T18:04:04.257Z,51569.98
2019-05-25T18:06:17.822Z,51336.79
2019-05-25T18:08:46.211Z,51420.94
2019-05-25T18:11:14.674Z,51388.50
2019-05-25T18:13:43.450Z,51309.41
2019-05-25T18:16:11.907Z,51366.19
2019-05-25T18:18:40.307Z,51192.82
2019-05-25T18:21:08.709Z,51111.72
2019-05-25T18:23:38.088Z,51225.27
2019-05-25T18:26:06.732Z,51282.04
2019-05-25T18:28:35.114Z,51378.36
2019-05-25T18:31:03.504Z,51313.47
2019-05-25T18:33:31.935Z,51257.71
2019-05-25T18:36:00.350Z,51323.61
2019-05-25T18:38:29.026Z,51342.87
2019-05-25T18:40:57.505Z,51544.64
2019-05-25T18:43:30.438Z,51610.54
2019-05-25T18:45:58.825Z,51555.79
2019-05-25T18:48:27.275Z,51384.44
2019-05-25T18:50:55.844Z,51472.65
2019-05-25T18:53:24.398Z,51393.57
2019-05-25T18:55:52.770Z,51444.26
2019-05-25T18:58:21.543Z,51507.12
2019-05-25T19:00:50.029Z,51601.42
2019-05-25T19:03:18.477Z,51650.09
2019-05-25T19:05:46.881Z,51601.42
2019-05-25T19:08:15.555Z,51608.51
2019-05-25T19:10:44.390Z,51578.09
2019-05-25T19:13:12.769Z,51633.86
2019-05-25T19:15:41.273Z,51562.89
2019-05-25T19:18:09.705Z,51389.51
2019-05-25T19:20:38.099Z,51321.58
2019-05-25T19:23:06.496Z,51260.75
2019-05-25T19:25:34.892Z,51232.36
2019-05-25T19:28:03.458Z,51104.62
2019-05-25T19:30:31.865Z,51022.50
2019-05-25T19:33:00.247Z,50884.63
2019-05-25T19:35:28.636Z,50926.20
2019-05-25T19:37:57.029Z,50977.90
2019-05-25T19:40:25.432Z,50998.18
2019-05-25T19:42:53.861Z,50968.77
2019-05-25T19:45:22.590Z,51013.38
2019-05-25T19:47:50.993Z,51056.97
2019-05-25T19:50:19.807Z,50892.74
2019-05-25T19:52:48.244Z,50857.26
2019-05-25T19:55:16.701Z,50836.99
2019-05-25T19:57:45.616Z,50861.32
2019-05-25T20:00:14.916Z,50855.23
2019-05-25T20:02:43.401Z,50876.52
2019-05-25T20:05:16.999Z,50856.25
2019-05-25T20:07:42.299Z,50877.54
2019-05-25T20:10:11.664Z,50914.03
2019-05-25T20:12:40.068Z,50927.21
2019-05-25T20:15:09.424Z,50934.31
2019-05-25T20:17:37.882Z,50944.45
2019-05-25T20:20:07.472Z,50976.89
2019-05-25T20:22:35.833Z,51012.37
2019-05-25T20:25:06.745Z,51027.57
2019-05-25T20:27:35.202Z,51043.79
2019-05-25T20:30:07.244Z,51055.96
2019-05-25T20:32:35.678Z,51023.52
2019-05-25T20:35:05.852Z,51067.11
2019-05-25T20:37:34.255Z,51095.50
2019-05-25T20:40:02.769Z,51075.22
2019-05-25T20:42:31.268Z,51088.40
2019-05-25T20:44:59.668Z,51088.40
2019-05-25T20:47:28.071Z,51148.21
2019-05-25T20:49:56.479Z,51132.00
2019-05-25T20:52:24.870Z,51147.20
2019-05-25T20:54:53.354Z,51100.57
2019-05-25T20:57:21.748Z,51152.27
2019-05-25T20:59:50.366Z,51199.92
2019-05-25T21:02:18.789Z,51258.72
2019-05-25T21:04:47.180Z,51275.96
2019-05-25T21:07:15.855Z,51219.18
2019-05-25T21:09:44.264Z,51239.46
2019-05-25T21:12:13.127Z,51257.71
2019-05-25T21:14:41.534Z,51257.71
2019-05-25T21:17:09.944Z,51257.71
2019-05-25T21:19:38.347Z,51294.21
2019-05-25T21:22:06.764Z,51326.65
2019-05-25T21:24:35.146Z,51370.25
2019-05-25T21:27:04.460Z,51383.43
2019-05-25T21:29:32.879Z,51394.58
2019-05-25T21:32:01.456Z,51451.36
2019-05-25T21:34:29.841Z,51432.09
2019-05-25T21:36:58.235Z,51479.75
2019-05-25T21:39:26.642Z,51484.82
2019-05-25T21:41:55.366Z,51496.98
2019-05-25T21:44:24.201Z,51536.53
2019-05-25T21:46:52.817Z,51490.90
2019-05-25T21:49:21.459Z,51512.19
2019-05-25T21:51:49.941Z,51554.78
2019-05-25T21:54:18.384Z,51594.32
2019-05-25T21:56:46.769Z,51595.33
2019-05-25T21:59:15.167Z,51611.55
2019-05-25T22:01:43.562Z,51633.86
2019-05-25T22:04:12.029Z,51655.16
2019-05-25T22:06:40.631Z,51678.48
2019-05-25T22:09:09.037Z,51696.73
2019-05-25T22:11:37.435Z,51741.34
2019-05-25T22:14:05.911Z,51735.26
2019-05-25T22:16:34.338Z,51780.89
2019-05-25T22:19:07.223Z,51811.30
2019-05-25T22:21:37.228Z,51800.15
2019-05-25T22:24:05.619Z,51827.53
2019-05-25T22:26:34.348Z,51837.67
2019-05-25T22:29:03.038Z,51881.27
2019-05-25T22:31:31.440Z,51898.51
2019-05-25T22:34:02.872Z,51917.77
2019-05-25T22:36:40.200Z,51957.32
2019-05-25T22:39:01.712Z,51954.28
2019-05-25T22:41:30.171Z,52031.34
2019-05-25T22:43:58.874Z,52036.41
2019-05-25T22:46:27.281Z,52066.84
2019-05-25T22:48:55.952Z,52075.96
2019-05-25T22:51:24.460Z,52105.37
2019-05-25T22:53:52.846Z,52114.50
2019-05-25T22:56:21.606Z,52125.65
2019-05-25T22:58:50.014Z,52163.17
2019-05-25T23:01:18.674Z,52179.40
2019-05-25T23:03:47.088Z,52177.37
2019-05-25T23:06:15.553Z,52208.80
2019-05-25T23:08:43.956Z,52203.74
2019-05-25T23:11:12.347Z,52177.37
2019-05-25T23:13:41.104Z,52197.65
2019-05-25T23:16:11.129Z,52234.16
2019-05-25T23:18:43.797Z,52234.16
2019-05-25T23:21:12.222Z,52232.13
2019-05-25T23:23:40.601Z,52303.12
2019-05-25T23:26:09.265Z,52287.91
2019-05-25T23:28:37.664Z,52310.21
2019-05-25T23:31:06.049Z,52298.05
2019-05-25T23:33:34.464Z,52295.00
2019-05-25T23:36:02.871Z,52307.17
2019-05-25T23:38:31.589Z,52336.58
2019-05-25T23:40:59.986Z,52378.16
2019-05-25T23:43:28.392Z,52356.87
2019-05-25T23:45:56.784Z,52395.40
2019-05-25T23:48:25.181Z,52408.59
2019-05-25T23:50:53.910Z,52411.63
2019-05-25T23:53:22.594Z,52428.87
2019-05-25T23:55:51.500Z,52421.77
2019-05-25T23:58:19.912Z,52421.77
